Time;durP1;ratioP1;P1;durP2;ratioP2;P2;SDS_P1;SDS_P2;PMS_P1;PMS_P2;Temp;Humidity;BMP_temperature;BMP_pressure;BME280_temperature;BME280_humidity;BME280_pressure;Samples;Min_cycle;Max_cycle;Signal;HPM_P1;HPM_P2
2023/08/02 00:00:27;;;;;;;8.60;4.78;;;15.70;99.90;;;;;;4957995;28;89960;-34
2023/08/02 00:02:53;;;;;;;5.32;4.03;;;15.60;99.90;;;;;;4950847;28;90139;-34
2023/08/02 00:05:19;;;;;;;6.25;4.07;;;15.60;99.90;;;;;;4952986;28;89951;-33
2023/08/02 00:07:45;;;;;;;6.20;3.90;;;15.60;99.90;;;;;;4958519;28;89562;-33
2023/08/02 00:10:10;;;;;;;11.10;4.20;;;15.60;99.90;;;;;;4957990;28;90592;-35
2023/08/02 00:12:36;;;;;;;5.68;4.25;;;15.60;99.90;;;;;;4958374;28;89593;-34
2023/08/02 00:15:01;;;;;;;6.28;2.83;;;15.60;99.90;;;;;;4938475;28;89743;-30
2023/08/02 00:17:27;;;;;;;9.85;3.90;;;15.60;99.90;;;;;;4958046;28;87723;-30
2023/08/02 00:19:53;;;;;;;10.80;3.33;;;15.50;99.90;;;;;;4957315;28;89424;-31
2023/08/02 00:22:18;;;;;;;6.50;3.97;;;15.50;99.90;;;;;;4957640;28;89892;-33
2023/08/02 00:24:44;;;;;;;10.93;4.20;;;15.50;99.90;;;;;;4957479;28;91439;-35
2023/08/02 00:27:09;;;;;;;5.00;3.53;;;15.50;99.90;;;;;;4958814;28;90254;-31
2023/08/02 00:29:35;;;;;;;4.70;3.67;;;15.50;99.90;;;;;;4957631;28;90131;-31
2023/08/02 00:32:01;;;;;;;9.38;4.25;;;15.50;99.90;;;;;;4941707;28;90269;-34
2023/08/02 00:34:27;;;;;;;4.30;3.65;;;15.50;99.90;;;;;;4939363;28;88837;-30
2023/08/02 00:36:52;;;;;;;4.60;4.20;;;15.50;99.90;;;;;;4945131;28;90364;-33
2023/08/02 00:39:18;;;;;;;6.07;4.53;;;15.50;99.90;;;;;;4962015;28;89257;-32
2023/08/02 00:41:44;;;;;;;4.55;4.10;;;15.60;99.90;;;;;;4961066;28;91787;-34
2023/08/02 00:44:10;;;;;;;4.45;3.80;;;15.50;99.90;;;;;;4971682;28;90180;-31
2023/08/02 00:46:36;;;;;;;5.82;4.18;;;15.50;99.90;;;;;;4963131;28;90173;-31
2023/08/02 00:49:02;;;;;;;7.90;4.35;;;15.50;99.90;;;;;;4961128;28;90110;-34
2023/08/02 00:51:30;;;;;;;4.63;4.20;;;15.50;99.90;;;;;;4960833;28;90111;-35
2023/08/02 00:53:56;;;;;;;4.57;3.92;;;15.50;99.90;;;;;;4962025;28;90310;-34
2023/08/02 00:56:22;;;;;;;7.93;3.60;;;15.50;99.90;;;;;;4959844;28;89467;-34
2023/08/02 00:58:48;;;;;;;6.65;3.95;;;15.50;99.90;;;;;;4961962;28;88811;-36
2023/08/02 01:01:13;;;;;;;6.90;5.15;;;15.50;99.90;;;;;;4960691;28;90416;-31
2023/08/02 01:03:41;;;;;;;4.70;4.20;;;15.50;99.90;;;;;;4960929;28;89802;-40
2023/08/02 01:06:37;;;;;;;11.35;4.70;;;15.50;99.90;;;;;;4954066;28;88535;-33
2023/08/02 01:09:30;;;;;;;7.18;5.13;;;15.50;99.90;;;;;;4954999;28;88031;-33
2023/08/02 01:12:05;;;;;;;7.68;4.85;;;15.50;99.90;;;;;;4942432;28;90236;-33
2023/08/02 01:14:33;;;;;;;6.55;5.05;;;15.50;99.90;;;;;;4941335;28;90554;-35
2023/08/02 01:17:02;;;;;;;9.52;5.10;;;15.50;99.90;;;;;;4941419;28;90311;-34
2023/08/02 01:19:27;;;;;;;;;;;15.50;99.90;;;;;;4943103;28;90055;-31
2023/08/02 01:21:53;;;;;;;5.03;4.53;;;15.50;99.90;;;;;;4944316;28;90348;-32
2023/08/02 01:24:19;;;;;;;5.65;4.82;;;15.50;99.90;;;;;;4942662;28;89448;-31
2023/08/02 01:26:48;;;;;;;7.50;4.45;;;15.50;99.90;;;;;;4946818;28;90087;-34
2023/08/02 01:29:19;;;;;;;7.45;5.10;;;15.50;99.90;;;;;;4956210;28;87803;-35
2023/08/02 01:31:45;;;;;;;6.50;4.25;;;15.40;99.90;;;;;;4950997;28;90773;-39
2023/08/02 01:34:12;;;;;;;11.15;5.93;;;15.50;99.90;;;;;;4956435;28;89479;-38
2023/08/02 01:36:38;;;;;;;11.82;5.20;;;15.50;99.90;;;;;;4961103;28;91309;-33
2023/08/02 01:39:06;;;;;;;11.10;6.05;;;15.50;99.90;;;;;;4955132;28;88840;-31
2023/08/02 01:41:32;;;;;;;;;;;15.50;99.90;;;;;;4951570;28;89777;-34
2023/08/02 01:43:57;;;;;;;7.68;5.07;;;15.50;99.90;;;;;;4957113;28;90051;-33
2023/08/02 01:46:23;;;;;;;15.75;5.47;;;15.50;99.90;;;;;;4951372;28;89594;-31
2023/08/02 01:48:48;;;;;;;8.52;5.50;;;15.50;99.90;;;;;;4955531;28;89304;-36
2023/08/02 01:51:14;;;;;;;10.07;5.10;;;15.50;99.90;;;;;;4951720;28;90370;-38
2023/08/02 01:53:40;;;;;;;9.45;5.20;;;15.50;99.90;;;;;;4955288;28;90438;-36
2023/08/02 01:56:05;;;;;;;8.35;5.13;;;15.50;99.90;;;;;;4950860;28;89347;-36
2023/08/02 01:58:31;;;;;;;11.35;5.95;;;15.50;99.90;;;;;;4954368;28;88368;-34
2023/08/02 02:00:56;;;;;;;10.90;5.97;;;15.50;99.90;;;;;;4954053;28;90688;-33
2023/08/02 02:03:22;;;;;;;10.55;5.30;;;15.50;99.90;;;;;;4959598;28;90303;-34
2023/08/02 02:05:52;;;;;;;6.22;4.63;;;15.50;99.90;;;;;;4960072;28;90482;-35
2023/08/02 02:08:18;;;;;;;12.02;5.47;;;15.50;99.90;;;;;;4960717;28;88130;-39
2023/08/02 02:10:51;;;;;;;9.05;5.63;;;15.50;99.90;;;;;;4959558;28;90273;-34
2023/08/02 02:13:22;;;;;;;9.43;6.10;;;15.50;99.90;;;;;;4959470;28;89747;-36
2023/08/02 02:15:47;;;;;;;11.75;6.63;;;15.50;99.90;;;;;;4959963;28;89203;-38
2023/08/02 02:18:13;;;;;;;12.57;5.18;;;15.50;99.90;;;;;;4958265;28;89053;-35
2023/08/02 02:20:39;;;;;;;11.20;5.95;;;15.50;99.90;;;;;;4947330;28;90063;-33
2023/08/02 02:23:05;;;;;;;19.23;6.38;;;15.50;99.90;;;;;;4956984;28;90662;-35
2023/08/02 02:25:31;;;;;;;13.10;6.38;;;15.50;99.90;;;;;;4959437;28;90555;-33
2023/08/02 02:27:56;;;;;;;8.70;5.70;;;15.50;99.90;;;;;;4956801;28;89259;-34
2023/08/02 02:30:22;;;;;;;12.45;5.57;;;15.50;99.90;;;;;;4956180;28;89958;-34
2023/08/02 02:32:48;;;;;;;11.73;5.30;;;15.50;99.90;;;;;;4940770;28;90186;-38
2023/08/02 02:35:14;;;;;;;12.00;5.57;;;15.50;99.90;;;;;;4943977;28;90448;-35
2023/08/02 02:37:40;;;;;;;16.48;5.88;;;15.40;99.90;;;;;;4960169;28;89041;-36
2023/08/02 02:40:07;;;;;;;11.30;5.35;;;15.40;99.90;;;;;;4959424;28;90113;-32
2023/08/02 02:42:32;;;;;;;18.05;6.80;;;15.40;99.90;;;;;;4949720;28;90274;-35
2023/08/02 02:44:58;;;;;;;11.82;5.65;;;15.50;99.90;;;;;;4953507;28;90121;-33
2023/08/02 02:47:23;;;;;;;9.90;6.35;;;15.40;99.90;;;;;;4940993;28;89764;-35
2023/08/02 02:49:49;;;;;;;14.43;6.13;;;15.40;99.90;;;;;;4952819;28;90324;-35
2023/08/02 02:52:15;;;;;;;14.18;6.60;;;15.50;99.90;;;;;;4950301;28;90787;-32
2023/08/02 02:54:40;;;;;;;12.27;5.85;;;15.40;99.90;;;;;;4957966;28;90998;-34
2023/08/02 02:57:07;;;;;;;8.93;6.45;;;15.40;99.90;;;;;;4959224;28;89720;-36
2023/08/02 02:59:32;;;;;;;9.85;5.95;;;15.40;99.90;;;;;;4958062;28;90364;-33
2023/08/02 03:01:59;;;;;;;14.82;6.70;;;15.40;99.90;;;;;;4959766;28;90680;-34
2023/08/02 03:04:28;;;;;;;14.88;7.07;;;15.40;99.90;;;;;;4959809;28;89618;-37
2023/08/02 03:06:54;;;;;;;13.63;5.70;;;15.40;99.90;;;;;;4945943;28;88478;-32
2023/08/02 03:09:19;;;;;;;18.63;6.70;;;15.40;99.90;;;;;;4958542;28;90270;-32
2023/08/02 03:11:45;;;;;;;11.23;6.55;;;15.40;99.90;;;;;;4957011;28;89554;-38
2023/08/02 03:14:11;;;;;;;9.18;6.25;;;15.40;99.90;;;;;;4959469;28;89648;-32
2023/08/02 03:16:37;;;;;;;18.10;7.03;;;15.30;99.90;;;;;;4958049;28;88552;-35
2023/08/02 03:19:04;;;;;;;10.82;6.13;;;15.30;99.90;;;;;;4958790;28;90112;-35
2023/08/02 03:21:30;;;;;;;12.63;6.97;;;15.30;99.90;;;;;;4958973;28;90716;-32
2023/08/02 03:23:55;;;;;;;12.82;8.05;;;15.20;99.90;;;;;;4959560;28;89137;-32
2023/08/02 03:26:21;;;;;;;14.65;7.28;;;15.20;99.90;;;;;;4959517;28;88816;-37
2023/08/02 03:28:47;;;;;;;15.88;7.43;;;15.20;99.90;;;;;;4958673;28;90599;-35
2023/08/02 03:31:12;;;;;;;6.47;5.78;;;15.10;99.90;;;;;;4931857;28;89488;-35
2023/08/02 03:33:38;;;;;;;17.98;7.65;;;15.10;99.90;;;;;;4943880;28;89633;-34
2023/08/02 03:36:04;;;;;;;11.23;6.25;;;15.10;99.90;;;;;;4948401;28;90050;-38
2023/08/02 03:38:29;;;;;;;13.82;7.53;;;15.10;99.90;;;;;;4940364;28;90456;-31
2023/08/02 03:40:56;;;;;;;11.50;6.43;;;15.10;99.90;;;;;;4939030;28;90870;-33
2023/08/02 03:43:21;;;;;;;10.85;6.45;;;15.10;99.90;;;;;;4939930;28;91029;-34
2023/08/02 03:45:49;;;;;;;17.30;7.10;;;15.00;99.90;;;;;;4949681;28;88639;-34
2023/08/02 03:48:16;;;;;;;10.35;7.93;;;15.00;99.90;;;;;;4956031;28;90129;-31
2023/08/02 03:50:42;;;;;;;10.40;6.55;;;15.00;99.90;;;;;;4958836;28;89270;-33
2023/08/02 03:53:07;;;;;;;10.90;6.78;;;15.00;99.90;;;;;;4956679;28;89778;-35
2023/08/02 03:55:33;;;;;;;10.43;7.18;;;15.00;99.90;;;;;;4957776;28;87775;-34
2023/08/02 03:57:58;;;;;;;8.57;7.25;;;15.00;99.90;;;;;;4958158;28;90478;-31
2023/08/02 04:00:24;;;;;;;10.50;6.70;;;14.90;99.90;;;;;;4957910;28;89557;-33
2023/08/02 04:02:50;;;;;;;11.68;6.45;;;14.90;99.90;;;;;;4959650;28;89563;-34
2023/08/02 04:05:15;;;;;;;12.43;7.35;;;14.80;99.90;;;;;;4944019;28;88293;-37
2023/08/02 04:07:41;;;;;;;16.30;7.63;;;14.80;99.90;;;;;;4939245;28;89364;-36
2023/08/02 04:10:07;;;;;;;13.38;7.32;;;14.90;99.90;;;;;;4940037;28;89904;-32
2023/08/02 04:12:33;;;;;;;9.20;6.68;;;14.90;99.90;;;;;;4961573;28;89663;-31
2023/08/02 04:14:58;;;;;;;12.88;7.05;;;14.80;99.90;;;;;;4948763;28;89814;-34
2023/08/02 04:17:27;;;;;;;15.55;8.07;;;14.80;99.90;;;;;;4942252;28;90480;-34
2023/08/02 04:19:52;;;;;;;10.15;6.80;;;14.80;99.90;;;;;;4942401;28;89930;-32
2023/08/02 04:22:18;;;;;;;10.18;7.25;;;14.80;99.90;;;;;;4942900;28;89334;-33
2023/08/02 04:24:43;;;;;;;11.60;7.57;;;14.80;99.90;;;;;;4942876;28;90196;-33
2023/08/02 04:27:09;;;;;;;10.68;6.93;;;14.70;99.90;;;;;;4943289;28;89698;-31
2023/08/02 04:29:35;;;;;;;12.80;7.78;;;14.80;99.90;;;;;;4952753;28;90277;-30
2023/08/02 04:32:00;;;;;;;8.15;6.30;;;14.80;99.90;;;;;;4956990;28;90587;-33
2023/08/02 04:34:26;;;;;;;9.30;7.18;;;14.70;99.90;;;;;;4942958;28;89950;-33
2023/08/02 04:36:52;;;;;;;20.90;7.97;;;14.70;99.90;;;;;;4954718;28;91605;-36
2023/08/02 04:39:18;;;;;;;9.23;6.10;;;14.70;99.90;;;;;;4942932;28;89879;-38
2023/08/02 04:41:43;;;;;;;10.65;7.40;;;14.80;99.90;;;;;;4954611;28;89596;-37
2023/08/02 04:44:09;;;;;;;10.75;7.38;;;14.80;99.90;;;;;;4942918;28;89440;-38
2023/08/02 04:46:35;;;;;;;14.90;7.85;;;14.80;99.90;;;;;;4942839;28;90048;-36
2023/08/02 04:49:00;;;;;;;12.02;7.82;;;14.80;99.90;;;;;;4942621;28;89968;-32
2023/08/02 04:51:26;;;;;;;12.90;7.38;;;14.80;99.90;;;;;;4942334;28;90218;-36
2023/08/02 04:53:52;;;;;;;7.80;6.72;;;14.80;99.90;;;;;;4950559;28;89174;-36
2023/08/02 04:56:17;;;;;;;14.25;6.75;;;14.90;99.90;;;;;;4943988;28;90302;-33
2023/08/02 04:58:44;;;;;;;8.60;6.75;;;14.90;99.90;;;;;;4943015;28;89336;-32
2023/08/02 05:01:09;;;;;;;10.10;6.90;;;14.90;99.90;;;;;;4948461;28;89996;-35
2023/08/02 05:03:36;;;;;;;12.15;6.32;;;14.90;99.90;;;;;;4970170;28;89157;-31
2023/08/02 05:06:03;;;;;;;6.65;6.05;;;14.90;99.90;;;;;;4957389;28;90098;-32
2023/08/02 05:08:31;;;;;;;14.30;7.95;;;14.90;99.90;;;;;;4958975;28;89767;-38
2023/08/02 05:10:57;;;;;;;8.65;6.78;;;15.00;99.90;;;;;;4941805;28;88952;-32
2023/08/02 05:13:23;;;;;;;9.80;6.00;;;15.10;99.90;;;;;;4960222;28;89623;-32
2023/08/02 05:15:50;;;;;;;11.32;7.25;;;15.10;99.90;;;;;;4958038;28;90070;-32
2023/08/02 05:18:16;;;;;;;10.27;5.75;;;15.00;99.90;;;;;;4958494;28;90439;-34
2023/08/02 05:20:42;;;;;;;11.90;6.72;;;15.10;99.90;;;;;;4958619;28;90401;-31
2023/08/02 05:23:07;;;;;;;7.10;6.30;;;15.00;99.90;;;;;;4959091;28;88584;-35
2023/08/02 05:25:34;;;;;;;9.73;6.20;;;15.10;99.90;;;;;;4960768;28;90305;-32
2023/08/02 05:28:00;;;;;;;7.10;5.28;;;15.10;99.90;;;;;;4957439;28;89445;-37
2023/08/02 05:30:30;;;;;;;10.15;5.93;;;15.10;99.90;;;;;;4960749;28;89974;-37
2023/08/02 05:32:56;;;;;;;12.75;6.65;;;15.20;99.90;;;;;;4949912;28;88765;-34
2023/08/02 05:35:25;;;;;;;7.65;5.85;;;15.20;99.90;;;;;;4958896;28;90436;-33
2023/08/02 05:37:52;;;;;;;10.90;6.40;;;15.30;99.90;;;;;;4961570;28;91678;-31
2023/08/02 05:40:18;;;;;;;7.43;6.47;;;15.40;99.90;;;;;;4960019;28;89746;-36
2023/08/02 05:42:44;;;;;;;6.95;6.05;;;15.30;99.90;;;;;;4960614;28;88229;-34
2023/08/02 05:45:10;;;;;;;6.93;6.03;;;15.40;99.90;;;;;;4960490;28;90211;-35
2023/08/02 05:47:36;;;;;;;9.63;5.65;;;15.70;99.90;;;;;;4960706;28;89154;-37
2023/08/02 05:50:02;;;;;;;11.57;5.80;;;15.80;99.90;;;;;;4947908;28;89595;-34
2023/08/02 05:52:28;;;;;;;14.60;7.32;;;15.80;99.90;;;;;;4960735;28;89419;-36
2023/08/02 05:54:53;;;;;;;8.00;6.18;;;15.80;99.90;;;;;;4954870;28;90995;-33
2023/08/02 05:57:19;;;;;;;12.23;6.95;;;15.90;99.90;;;;;;4941627;28;88963;-32
2023/08/02 05:59:44;;;;;;;14.77;7.00;;;15.90;99.90;;;;;;4947284;28;90075;-33
2023/08/02 06:02:10;;;;;;;9.63;7.20;;;16.00;99.90;;;;;;4961469;28;89918;-31
2023/08/02 06:04:39;;;;;;;9.45;6.45;;;16.00;99.90;;;;;;4942721;28;90099;-35
2023/08/02 06:07:05;;;;;;;12.05;7.63;;;16.10;99.90;;;;;;4972154;28;91184;-37
2023/08/02 06:09:31;;;;;;;7.57;6.68;;;16.10;99.90;;;;;;4960453;28;89244;-35
2023/08/02 06:11:57;;;;;;;9.70;6.90;;;16.20;99.90;;;;;;4960034;28;89181;-33
2023/08/02 06:14:22;;;;;;;15.20;7.57;;;16.20;99.90;;;;;;4960095;28;89975;-40
2023/08/02 06:16:48;;;;;;;12.13;6.80;;;16.30;99.90;;;;;;4947329;28;89692;-37
2023/08/02 06:19:14;;;;;;;11.63;7.22;;;16.30;99.90;;;;;;4944894;28;89534;-36
2023/08/02 06:21:40;;;;;;;14.48;7.43;;;16.30;99.90;;;;;;4950686;28;87723;-34
2023/08/02 06:24:06;;;;;;;8.55;5.72;;;16.30;99.90;;;;;;4950359;28;90864;-33
2023/08/02 06:26:32;;;;;;;15.38;6.03;;;16.40;99.90;;;;;;4950236;28;89796;-35
2023/08/02 06:28:57;;;;;;;10.48;5.93;;;16.40;99.90;;;;;;4953577;28;89479;-33
2023/08/02 06:31:23;;;;;;;10.63;5.75;;;16.40;99.90;;;;;;4960048;28;90555;-39
2023/08/02 06:33:49;;;;;;;9.43;5.55;;;16.50;99.90;;;;;;4954291;28;90180;-31
2023/08/02 06:36:15;;;;;;;10.13;5.05;;;16.50;99.90;;;;;;4952827;28;88420;-31
2023/08/02 06:38:40;;;;;;;8.23;5.45;;;16.50;99.90;;;;;;4970788;28;89720;-35
2023/08/02 06:41:06;;;;;;;7.97;6.28;;;16.50;99.90;;;;;;4943298;28;89285;-35
2023/08/02 06:43:32;;;;;;;6.97;5.32;;;16.50;99.90;;;;;;4956797;28;90896;-36
2023/08/02 06:45:58;;;;;;;11.57;6.65;;;16.50;99.90;;;;;;4958124;28;90256;-34
2023/08/02 06:48:25;;;;;;;9.95;4.88;;;16.50;99.90;;;;;;4957826;28;89721;-34
2023/08/02 06:50:52;;;;;;;11.80;6.68;;;16.50;99.90;;;;;;4958927;28;88132;-31
2023/08/02 06:53:18;;;;;;;7.10;5.53;;;16.50;99.90;;;;;;4956734;28;90500;-33
2023/08/02 06:55:44;;;;;;;12.05;5.75;;;16.50;99.90;;;;;;4955882;28;90181;-35
2023/08/02 06:58:10;;;;;;;6.95;4.88;;;16.50;99.90;;;;;;4957799;28;91684;-31
2023/08/02 07:00:35;;;;;;;6.70;4.22;;;16.50;99.90;;;;;;4959505;28;90277;-31
2023/08/02 07:03:02;;;;;;;8.05;5.00;;;16.40;99.90;;;;;;4960064;28;89055;-35
2023/08/02 07:05:29;;;;;;;8.48;5.05;;;16.30;99.90;;;;;;4957390;28;90315;-35
2023/08/02 07:07:56;;;;;;;9.48;5.25;;;16.30;99.90;;;;;;4948074;28;89509;-34
2023/08/02 07:10:22;;;;;;;16.38;5.72;;;16.30;99.90;;;;;;4938444;28;89083;-31
2023/08/02 07:12:48;;;;;;;8.85;5.13;;;16.30;99.90;;;;;;4938518;28;90266;-32
2023/08/02 07:15:14;;;;;;;7.40;4.72;;;16.30;99.90;;;;;;4947415;28;91315;-35
2023/08/02 07:17:40;;;;;;;12.50;5.15;;;16.20;99.90;;;;;;4956339;28;89255;-36
2023/08/02 07:20:06;;;;;;;8.50;4.50;;;16.30;99.90;;;;;;4952889;28;90329;-32
2023/08/02 07:22:32;;;;;;;9.88;4.90;;;16.30;99.90;;;;;;4951322;28;91825;-36
2023/08/02 07:24:58;;;;;;;7.13;5.05;;;16.30;99.90;;;;;;4954769;28;90059;-33
2023/08/02 07:27:23;;;;;;;10.05;5.30;;;16.20;99.90;;;;;;4951428;28;90117;-35
2023/08/02 07:29:49;;;;;;;7.00;5.45;;;16.30;99.90;;;;;;4953543;28;90053;-34
2023/08/02 07:32:15;;;;;;;9.88;5.55;;;16.30;99.90;;;;;;4947321;28;90242;-31
2023/08/02 07:34:41;;;;;;;12.45;5.43;;;16.30;99.90;;;;;;4942006;28;89840;-32
2023/08/02 07:37:06;;;;;;;13.30;5.50;;;16.40;99.90;;;;;;4948301;28;89628;-37
2023/08/02 07:39:33;;;;;;;14.25;5.53;;;16.40;99.90;;;;;;4952184;28;89011;-35
2023/08/02 07:41:58;;;;;;;6.32;4.97;;;16.40;99.90;;;;;;4950425;28;91613;-38
2023/08/02 07:44:24;;;;;;;8.57;4.90;;;16.40;99.90;;;;;;4950922;28;91638;-32
2023/08/02 07:46:52;;;;;;;9.95;6.05;;;16.40;99.90;;;;;;4961739;28;90368;-31
2023/08/02 07:49:18;;;;;;;9.68;5.53;;;16.30;99.90;;;;;;4947139;28;89046;-36
2023/08/02 07:51:43;;;;;;;10.60;4.40;;;16.30;99.90;;;;;;4951691;28;90400;-34
2023/08/02 07:54:09;;;;;;;6.20;4.20;;;16.30;99.90;;;;;;4946468;28;91239;-32
2023/08/02 07:56:35;;;;;;;10.98;4.38;;;16.30;99.90;;;;;;4947517;28;89766;-30
2023/08/02 07:59:00;;;;;;;10.45;5.00;;;16.20;99.90;;;;;;4944465;28;89755;-32
2023/08/02 08:01:26;;;;;;;4.80;4.32;;;16.10;99.90;;;;;;4952386;28;90078;-38
2023/08/02 08:03:52;;;;;;;5.68;4.25;;;16.10;99.90;;;;;;4958310;28;89488;-33
2023/08/02 08:06:23;;;;;;;6.55;4.57;;;16.00;99.90;;;;;;4956305;28;88511;-38
2023/08/02 08:08:49;;;;;;;7.43;4.72;;;16.00;99.90;;;;;;4954801;28;89902;-36
2023/08/02 08:11:15;;;;;;;8.75;4.55;;;16.00;99.90;;;;;;4957295;28;90205;-32
2023/08/02 08:13:41;;;;;;;10.10;4.40;;;15.90;99.90;;;;;;5032271;22;89694;-34
2023/08/02 08:16:07;;;;;;;8.35;4.25;;;15.90;99.90;;;;;;4996424;28;89709;-37
2023/08/02 08:18:33;;;;;;;4.88;4.35;;;15.90;99.90;;;;;;4995356;28;87533;-34
2023/08/02 08:21:03;;;;;;;10.10;5.70;;;15.90;99.90;;;;;;4996333;28;89404;-31
2023/08/02 08:23:32;;;;;;;7.18;4.82;;;15.90;99.90;;;;;;4993886;28;90307;-36
2023/08/02 08:25:58;;;;;;;6.82;4.50;;;15.80;99.90;;;;;;4998348;28;88877;-33
2023/08/02 08:28:24;;;;;;;7.63;4.97;;;15.90;99.90;;;;;;4993791;28;89765;-37
2023/08/02 08:30:57;;;;;;;8.55;4.95;;;15.90;99.90;;;;;;4998751;28;90270;-35
2023/08/02 08:33:22;;;;;;;8.13;5.35;;;15.80;99.90;;;;;;4995599;28;90950;-32
2023/08/02 08:35:48;;;;;;;7.45;5.10;;;15.80;99.90;;;;;;4978735;28;91970;-37
2023/08/02 08:38:14;;;;;;;7.40;5.55;;;15.80;99.90;;;;;;4978572;28;88256;-33
2023/08/02 08:40:39;;;;;;;6.53;5.05;;;15.80;99.90;;;;;;4979184;28;90858;-34
2023/08/02 08:43:06;;;;;;;7.55;5.07;;;15.80;99.90;;;;;;4980638;28;90820;-31
2023/08/02 08:45:33;;;;;;;8.95;6.25;;;15.80;99.90;;;;;;4989890;28;89319;-33
2023/08/02 08:47:58;;;;;;;8.82;5.15;;;15.80;99.90;;;;;;4979392;28;88166;-32
2023/08/02 08:50:27;;;;;;;9.00;5.93;;;15.90;99.90;;;;;;4979073;28;90762;-33
2023/08/02 08:52:55;;;;;;;9.30;5.60;;;15.80;99.90;;;;;;4980979;28;89987;-33
2023/08/02 08:55:22;;;;;;;;;;;15.80;99.90;;;;;;4980450;28;89566;-33
2023/08/02 08:57:50;;;;;;;7.88;4.70;;;15.90;99.90;;;;;;4985207;28;88667;-34
2023/08/02 09:00:16;;;;;;;6.57;5.60;;;16.00;99.90;;;;;;4991779;28;89612;-32
2023/08/02 09:02:43;;;;;;;6.60;4.78;;;16.10;99.90;;;;;;4983071;28;90245;-31
2023/08/02 09:05:09;;;;;;;11.50;6.95;;;16.10;99.90;;;;;;4988242;28;89396;-34
2023/08/02 09:07:35;;;;;;;7.35;6.07;;;16.10;99.90;;;;;;4988594;28;89285;-36
2023/08/02 09:10:01;;;;;;;7.32;6.10;;;16.10;99.90;;;;;;4987262;28;90824;-34
2023/08/02 09:12:30;;;;;;;6.10;5.10;;;16.10;99.90;;;;;;4987386;28;90792;-34
2023/08/02 09:15:01;;;;;;;10.07;6.35;;;16.10;99.90;;;;;;5001059;28;89545;-31
2023/08/02 09:17:27;;;;;;;5.72;4.95;;;16.10;99.90;;;;;;5001624;28;90136;-32
2023/08/02 09:20:09;;;;;;;13.48;6.47;;;16.10;99.90;;;;;;4999625;28;90516;-32
2023/08/02 09:22:35;;;;;;;11.15;5.60;;;16.10;99.90;;;;;;5000946;28;89340;-31
2023/08/02 09:25:07;;;;;;;8.20;5.80;;;16.10;99.90;;;;;;5000437;28;90541;-30
2023/08/02 09:27:33;;;;;;;7.43;6.03;;;16.10;99.90;;;;;;5001200;28;87711;-32
2023/08/02 09:29:58;;;;;;;8.48;6.07;;;16.10;99.90;;;;;;5000332;28;90311;-37
2023/08/02 09:32:25;;;;;;;7.95;6.70;;;16.10;99.90;;;;;;4980721;28;88561;-34
2023/08/02 09:34:56;;;;;;;11.60;7.30;;;16.10;99.90;;;;;;4993343;28;89102;-33
2023/08/02 09:37:35;;;;;;;10.73;5.78;;;16.20;99.90;;;;;;4988392;28;89047;-35
2023/08/02 09:40:04;;;;;;;8.95;7.07;;;16.20;99.90;;;;;;4983925;28;89924;-33
2023/08/02 09:42:30;;;;;;;8.07;5.82;;;16.20;99.90;;;;;;4980410;28;90666;-32
2023/08/02 09:45:03;;;;;;;7.38;6.35;;;16.20;99.90;;;;;;4984092;28;89792;-35
2023/08/02 09:47:29;;;;;;;6.00;5.40;;;16.20;99.90;;;;;;4988707;28;89718;-35
2023/08/02 09:50:09;;;;;;;6.68;5.95;;;16.20;99.90;;;;;;4980927;28;91190;-33
2023/08/02 09:52:37;;;;;;;8.45;5.60;;;16.20;99.90;;;;;;4981035;28;89937;-35
2023/08/02 09:55:03;;;;;;;8.27;6.00;;;16.20;99.90;;;;;;4981365;28;89127;-35
2023/08/02 09:57:31;;;;;;;6.32;5.65;;;16.30;99.90;;;;;;4993350;28;88233;-31
2023/08/02 10:00:02;;;;;;;6.07;5.47;;;16.30;99.90;;;;;;4980647;28;90254;-33
2023/08/02 10:02:30;;;;;;;10.45;5.72;;;16.20;99.90;;;;;;4993390;28;91188;-33
2023/08/02 10:04:57;;;;;;;6.83;5.60;;;16.20;99.90;;;;;;4991784;28;89402;-32
2023/08/02 10:07:39;;;;;;;6.78;5.70;;;16.20;99.90;;;;;;4980906;28;89029;-36
2023/08/02 10:10:07;;;;;;;10.27;5.15;;;16.20;99.90;;;;;;4992798;28;90260;-38
2023/08/02 10:12:38;;;;;;;7.40;4.82;;;16.20;99.90;;;;;;4979613;28;91023;-32
2023/08/02 10:15:04;;;;;;;7.30;4.95;;;16.30;99.90;;;;;;4979499;28;90897;-31
2023/08/02 10:17:31;;;;;;;7.10;5.47;;;16.30;99.90;;;;;;4980677;28;88065;-34
2023/08/02 10:20:01;;;;;;;5.65;4.57;;;16.30;99.90;;;;;;4981459;28;90146;-35
2023/08/02 10:22:27;;;;;;;6.55;5.25;;;16.30;99.90;;;;;;4981530;28;90167;-32
2023/08/02 10:24:53;;;;;;;4.97;4.47;;;16.30;99.90;;;;;;4980606;28;89375;-32
2023/08/02 10:27:20;;;;;;;7.03;4.55;;;16.30;99.90;;;;;;4980539;28;88240;-32
2023/08/02 10:29:48;;;;;;;5.28;4.07;;;16.30;99.90;;;;;;4993317;28;90028;-34
2023/08/02 10:32:16;;;;;;;4.40;4.00;;;16.30;99.90;;;;;;4986243;28;88669;-34
2023/08/02 10:34:44;;;;;;;4.55;3.88;;;16.30;99.90;;;;;;5000110;28;89707;-34
2023/08/02 10:37:09;;;;;;;5.13;4.07;;;16.30;99.90;;;;;;4998408;28;88229;-32
2023/08/02 10:39:54;;;;;;;4.93;4.53;;;16.30;99.90;;;;;;4987227;28;90180;-36
2023/08/02 10:42:22;;;;;;;4.88;3.53;;;16.40;99.90;;;;;;4979433;28;90572;-37
2023/08/02 10:44:56;;;;;;;4.38;3.97;;;16.40;99.90;;;;;;4994899;28;89307;-33
2023/08/02 10:47:27;;;;;;;3.58;3.28;;;16.40;99.90;;;;;;4999669;28;88907;-36
2023/08/02 10:49:54;;;;;;;4.22;3.10;;;16.40;99.90;;;;;;4999362;28;90685;-31
2023/08/02 10:52:29;;;;;;;3.40;2.53;;;16.40;99.90;;;;;;4999027;28;89651;-31
2023/08/02 10:55:14;;;;;;;3.50;3.13;;;16.50;99.90;;;;;;4999377;28;89227;-30
2023/08/02 10:57:53;;;;;;;2.90;2.60;;;16.50;99.90;;;;;;5000190;28;90165;-32
2023/08/02 11:00:23;;;;;;;3.58;3.13;;;16.40;99.90;;;;;;4999711;28;90265;-33
2023/08/02 11:02:50;;;;;;;2.53;2.33;;;16.50;99.90;;;;;;4998754;28;90442;-36
2023/08/02 11:05:19;;;;;;;3.60;3.30;;;16.50;99.90;;;;;;4998719;28;90342;-32
2023/08/02 11:07:59;;;;;;;3.28;2.75;;;16.50;99.90;;;;;;4999363;28;88419;-37
2023/08/02 11:10:24;;;;;;;2.63;2.42;;;16.50;99.90;;;;;;4998817;28;89743;-37
2023/08/02 11:12:54;;;;;;;2.45;2.15;;;16.60;99.90;;;;;;4998544;28;89735;-36
2023/08/02 11:15:21;;;;;;;2.78;2.58;;;16.60;99.90;;;;;;4998543;28;89485;-34
2023/08/02 11:17:53;;;;;;;2.25;2.15;;;16.60;99.90;;;;;;4989275;28;88977;-32
2023/08/02 11:20:24;;;;;;;3.30;3.00;;;16.60;99.90;;;;;;4980214;28;90024;-37
2023/08/02 11:22:49;;;;;;;2.78;2.58;;;16.60;99.90;;;;;;4992343;28;90926;-33
2023/08/02 11:25:19;;;;;;;3.10;2.80;;;16.60;99.90;;;;;;4980335;28;90588;-31
2023/08/02 11:27:45;;;;;;;2.88;2.67;;;16.70;99.90;;;;;;4979513;28;89423;-36
2023/08/02 11:30:11;;;;;;;2.85;2.65;;;16.70;99.90;;;;;;4991534;28;89046;-38
2023/08/02 11:32:47;;;;;;;2.58;2.38;;;16.80;99.90;;;;;;4988192;28;89117;-34
2023/08/02 11:35:19;;;;;;;2.33;2.13;;;16.80;99.90;;;;;;4985623;28;89258;-34
2023/08/02 11:37:46;;;;;;;1.90;1.80;;;16.90;99.90;;;;;;4988022;28;88830;-36
2023/08/02 11:40:12;;;;;;;2.60;1.48;;;16.90;99.90;;;;;;4995086;28;90693;-32
2023/08/02 11:42:47;;;;;;;2.42;2.22;;;16.90;99.90;;;;;;4998085;28;89246;-34
2023/08/02 11:45:13;;;;;;;1.52;1.42;;;16.90;99.90;;;;;;4997416;28;89446;-34
2023/08/02 11:47:38;;;;;;;2.83;2.50;;;16.90;99.90;;;;;;4998078;28;88112;-34
2023/08/02 11:50:04;;;;;;;1.75;1.65;;;16.90;99.90;;;;;;4997303;28;90861;-37
2023/08/02 11:52:32;;;;;;;1.90;1.80;;;17.00;99.90;;;;;;4997249;28;90720;-31
2023/08/02 11:54:58;;;;;;;2.97;2.30;;;17.10;99.90;;;;;;4997755;28;89523;-31
2023/08/02 11:57:25;;;;;;;5.97;1.90;;;17.20;99.90;;;;;;4997291;28;88901;-36
2023/08/02 11:59:54;;;;;;;2.95;2.75;;;17.40;99.90;;;;;;4999041;28;90074;-32
2023/08/02 12:02:31;;;;;;;2.53;2.33;;;17.60;99.90;;;;;;4995195;28;89288;-35
2023/08/02 12:05:04;;;;;;;2.63;2.42;;;17.70;99.90;;;;;;4990514;28;89940;-32
2023/08/02 12:07:32;;;;;;;2.70;2.42;;;17.80;99.90;;;;;;4999107;28;90344;-32
2023/08/02 12:09:58;;;;;;;2.53;2.33;;;18.00;99.90;;;;;;4986520;28;90163;-36
2023/08/02 12:12:29;;;;;;;2.20;2.05;;;18.20;99.90;;;;;;4984213;28;89950;-33
2023/08/02 12:14:55;;;;;;;2.40;2.20;;;18.30;99.90;;;;;;4998508;28;90445;-34
2023/08/02 12:17:23;;;;;;;2.40;2.03;;;18.30;99.90;;;;;;4997805;28;89686;-36
2023/08/02 12:19:49;;;;;;;2.33;2.08;;;18.50;99.90;;;;;;4998790;28;90909;-35
2023/08/02 12:22:16;;;;;;;3.08;2.88;;;18.60;99.90;;;;;;4999094;28;89306;-35
2023/08/02 12:24:42;;;;;;;2.60;2.40;;;18.70;99.90;;;;;;4995711;28;89377;-32
2023/08/02 12:27:26;;;;;;;3.67;3.38;;;18.80;99.90;;;;;;4987357;28;89340;-36
2023/08/02 12:30:10;;;;;;;3.38;3.08;;;19.00;99.90;;;;;;4993124;28;89478;-32
2023/08/02 12:32:36;;;;;;;3.40;3.08;;;19.20;99.90;;;;;;4990705;28;90050;-33
2023/08/02 12:35:06;;;;;;;3.65;3.35;;;19.20;99.90;;;;;;4988645;28;89934;-34
2023/08/02 12:37:32;;;;;;;3.90;3.60;;;19.40;99.90;;;;;;5001535;28;89280;-32
2023/08/02 12:39:58;;;;;;;3.67;3.38;;;19.40;99.90;;;;;;5001493;28;90131;-32
2023/08/02 12:42:23;;;;;;;3.75;3.45;;;19.40;99.90;;;;;;4991688;28;89935;-33